Princeton, Canada
Current Conditions -  °F | °C
As of 5:00 AM on Saturday 25 Oct 2014 (Local Time) from CYYF Reporting Station
Overcast Overcast  
Wind Chill: 45°   Ceiling: 4000
Heat Index: 45°   Visibility: 15mi
Dew Point: 43°   Wind: 2mph
Humidity: 93%   Direction: 20°NNE
Pressure: 29.82"   Gusts: NA
Location:  49.46°N, 120.5°W
Report Text: CYYF 251200Z 02002KT 15SM FEW020 BKN040 OVC080 07/06 A2982 RMK SC2SC5AC1 SLP105
Loading
Personal Weather Stations






























Interactive Weather Map
Tropical Storm Tracking
New forecast layout! Learn more

10-Day Weather Forecast

Advertisements
Track Severe Weather on mobile